Time;durP1;ratioP1;P1;durP2;ratioP2;P2;SDS_P1;SDS_P2;PMS_P1;PMS_P2;Temp;Humidity;BMP_temperature;BMP_pressure;BME280_temperature;BME280_humidity;BME280_pressure;Samples;Min_cycle;Max_cycle;Signal;HPM_P1;HPM_P2
2022/01/12 00:00:58;;;;;;;12.43;5.70;;;3.60;99.90;;;1.86;100.00;102512.00;6210551;23;20028;-84
2022/01/12 00:03:25;;;;;;;15.52;6.25;;;3.50;99.90;;;1.89;100.00;102497.56;6207069;22;20025;-81
2022/01/12 00:05:54;;;;;;;15.80;6.75;;;3.60;99.90;;;1.92;100.00;102492.91;6210482;23;20037;-81
2022/01/12 00:08:21;;;;;;;16.55;7.10;;;3.60;99.90;;;1.88;100.00;102485.94;6210501;23;20020;-81
2022/01/12 00:10:48;;;;;;;13.98;6.38;;;3.60;99.90;;;1.88;100.00;102474.34;6210588;23;20307;-81
2022/01/12 00:13:16;;;;;;;14.70;5.97;;;3.60;99.90;;;1.85;100.00;102487.94;6209785;23;20058;-81
2022/01/12 00:15:43;;;;;;;14.32;6.15;;;3.60;99.90;;;1.83;100.00;102485.34;6210610;23;20023;-81
2022/01/12 00:18:10;;;;;;;16.02;5.95;;;3.60;99.90;;;1.81;100.00;102481.84;6182339;23;20423;-80
2022/01/12 00:20:38;;;;;;;11.40;5.78;;;3.60;99.90;;;1.84;100.00;102487.03;6209725;23;20021;-80
2022/01/12 00:23:06;;;;;;;13.38;5.72;;;3.60;99.90;;;1.85;100.00;102483.44;6209304;23;20226;-81
2022/01/12 00:25:45;;;;;;;12.57;6.00;;;3.70;99.90;;;1.86;100.00;102490.53;6210845;23;20084;-81
2022/01/12 00:33:43;;;;;;;10.90;5.80;;;3.50;99.90;;;1.88;100.00;102488.63;6183420;23;20020;-81
2022/01/12 00:36:10;;;;;;;12.30;5.85;;;3.50;99.90;;;1.89;100.00;102487.69;6210188;23;20095;-81
2022/01/12 00:38:39;;;;;;;10.40;5.35;;;3.60;99.90;;;1.89;100.00;102482.31;6183721;23;20048;-81
2022/01/12 00:41:06;;;;;;;15.35;6.55;;;3.60;99.90;;;1.92;100.00;102489.34;6209368;23;20028;-81
2022/01/12 00:43:34;;;;;;;10.82;5.88;;;3.60;99.90;;;1.97;100.00;102491.81;6183761;23;20056;-81
2022/01/12 00:46:04;;;;;;;16.10;6.20;;;3.60;99.90;;;1.92;100.00;102517.06;6183502;23;20021;-81
2022/01/12 00:48:31;;;;;;;14.20;5.97;;;3.60;99.90;;;1.89;100.00;102527.97;6183545;23;20044;-81
2022/01/12 00:50:59;;;;;;;10.23;5.47;;;3.60;99.90;;;1.86;100.00;102530.78;6182989;23;20473;-81
2022/01/12 00:53:26;;;;;;;11.18;5.50;;;3.60;99.90;;;1.91;100.00;102531.44;6183396;23;20024;-80
2022/01/12 00:55:55;;;;;;;9.93;5.22;;;3.60;99.90;;;1.95;100.00;102516.03;6210260;23;20067;-81
2022/01/12 00:58:22;;;;;;;11.20;5.72;;;3.60;99.90;;;1.97;100.00;102507.91;6209938;23;20040;-81
2022/01/12 01:00:52;;;;;;;10.32;5.20;;;3.60;99.90;;;2.00;100.00;102513.09;6183638;23;20028;-81
2022/01/12 01:03:19;;;;;;;10.57;5.72;;;3.60;99.90;;;2.02;100.00;102514.78;6194777;23;20020;-81
2022/01/12 01:05:46;;;;;;;12.63;5.50;;;3.60;99.90;;;2.04;100.00;102520.06;6208559;23;20056;-81
2022/01/12 01:08:14;;;;;;;12.15;5.35;;;3.60;99.90;;;2.05;100.00;102524.47;6210130;23;20430;-81
2022/01/12 01:10:45;;;;;;;9.20;4.75;;;3.60;99.90;;;2.05;100.00;102529.84;6208534;23;20537;-81
2022/01/12 01:13:19;;;;;;;12.55;5.30;;;3.60;99.90;;;2.04;100.00;102528.13;6207727;23;20717;-81
2022/01/12 01:26:52;;;;;;;13.25;6.05;;;3.70;99.90;;;2.16;100.00;102546.28;6208458;23;20039;-81
2022/01/12 01:29:22;;;;;;;11.65;5.47;;;3.70;99.90;;;2.21;100.00;102551.41;6208142;23;20024;-81
2022/01/12 01:31:49;;;;;;;11.68;5.35;;;3.80;99.90;;;2.22;100.00;102555.84;6208964;23;20017;-81
2022/01/12 01:34:16;;;;;;;11.43;5.50;;;3.80;99.90;;;2.23;100.00;102563.81;6207987;23;20866;-81
2022/01/12 01:36:48;;;;;;;12.15;5.70;;;3.80;99.90;;;2.22;100.00;102570.13;6208393;23;20028;-81
2022/01/12 01:39:20;;;;;;;12.57;5.47;;;3.80;99.90;;;2.18;100.00;102573.94;6208169;23;20028;-81
2022/01/12 01:41:53;;;;;;;12.90;5.60;;;3.80;99.90;;;2.23;100.00;102577.25;6207034;23;20020;-81
2022/01/12 01:55:31;;;;;;;10.60;5.07;;;3.90;99.90;;;2.37;100.00;102576.53;6185172;23;20649;-81
2022/01/12 01:57:59;;;;;;;10.32;4.93;;;3.90;99.90;;;2.34;100.00;102582.94;6208065;23;20020;-81
2022/01/12 02:00:32;;;;;;;9.45;4.90;;;3.90;99.90;;;2.32;100.00;102589.31;6208086;23;20055;-81
2022/01/12 02:03:04;;;;;;;11.10;5.25;;;3.90;99.90;;;2.32;100.00;102600.97;6206718;23;20059;-81
2022/01/12 02:05:40;;;;;;;9.80;5.15;;;3.90;99.90;;;2.31;100.00;102596.53;6208213;23;20032;-81
2022/01/12 02:08:08;;;;;;;9.88;5.32;;;3.90;99.90;;;2.29;100.00;102589.50;6207860;23;20040;-81
2022/01/12 02:10:42;;;;;;;12.50;5.00;;;3.90;99.90;;;2.25;100.00;102594.16;6209601;23;20027;-81
2022/01/12 02:13:10;;;;;;;9.85;5.13;;;3.90;99.90;;;2.28;100.00;102577.88;6207146;23;20107;-81
2022/01/12 02:15:44;;;;;;;11.70;5.38;;;3.90;99.90;;;2.31;100.00;102572.34;6207616;23;20059;-81
2022/01/12 02:18:18;;;;;;;11.13;5.30;;;4.00;99.90;;;2.32;100.00;102555.28;6209661;23;20383;-81
2022/01/12 02:40:21;;;;;;;15.05;6.13;;;3.90;99.90;;;2.27;100.00;102533.16;6207748;23;20366;-81
2022/01/12 02:42:59;;;;;;;13.38;5.72;;;4.00;99.90;;;2.27;100.00;102535.00;6206693;23;20021;-81
2022/01/12 02:51:13;;;;;;;11.65;5.75;;;3.90;99.90;;;2.16;100.00;102557.03;6154761;23;20024;-81
2022/01/12 02:53:43;;;;;;;15.18;5.95;;;3.80;99.90;;;2.18;100.00;102565.00;6207716;23;20044;-81
2022/01/12 02:56:14;;;;;;;13.45;5.60;;;3.80;99.90;;;2.19;100.00;102566.72;6208006;23;20048;-81
2022/01/12 02:58:45;;;;;;;16.33;6.30;;;3.80;99.90;;;2.19;100.00;102572.09;6208822;23;20029;-81
2022/01/12 03:04:03;;;;;;;11.48;5.63;;;3.80;99.90;;;2.22;100.00;102555.84;6206254;23;20099;-81
2022/01/12 03:06:35;;;;;;;12.17;5.60;;;3.80;99.90;;;2.16;100.00;102538.22;6208236;23;20479;-80
2022/01/12 03:09:06;;;;;;;12.02;5.80;;;3.90;99.90;;;2.17;100.00;102537.28;6209387;23;20302;-81
2022/01/12 03:11:36;;;;;;;11.60;5.80;;;3.90;99.90;;;2.18;100.00;102544.38;6206912;23;20025;-81
2022/01/12 03:14:13;;;;;;;11.18;5.80;;;3.90;99.90;;;2.19;100.00;102551.50;6207835;23;20051;-81
2022/01/12 03:16:42;;;;;;;11.40;6.07;;;3.90;99.90;;;2.20;100.00;102542.47;6209337;23;20052;-81
2022/01/12 03:19:14;;;;;;;13.05;6.57;;;3.90;99.90;;;2.24;100.00;102532.44;6209563;23;20020;-81
2022/01/12 03:21:42;;;;;;;14.18;6.20;;;3.90;99.90;;;2.26;100.00;102539.47;6210106;23;20079;-81
2022/01/12 03:24:11;;;;;;;14.00;6.72;;;4.00;99.90;;;2.26;100.00;102550.22;6209467;23;20443;-81
2022/01/12 03:26:38;;;;;;;14.05;6.63;;;3.90;99.90;;;2.29;100.00;102539.31;6209292;23;20028;-81
2022/01/12 03:29:07;;;;;;;12.10;6.55;;;4.00;99.90;;;2.32;100.00;102547.22;6209281;23;20063;-81
2022/01/12 03:31:35;;;;;;;14.02;6.22;;;4.00;99.90;;;2.28;100.00;102560.88;6208326;23;20031;-81
2022/01/12 03:34:09;;;;;;;14.75;6.28;;;4.00;99.90;;;2.27;100.00;102576.16;6209543;23;20054;-81
2022/01/12 03:36:54;;;;;;;13.05;6.28;;;4.00;99.90;;;2.33;100.00;102589.25;6211285;23;20027;-81
2022/01/12 03:39:24;;;;;;;12.07;6.50;;;4.00;99.90;;;2.38;100.00;102598.88;6209321;23;20025;-81
2022/01/12 03:41:52;;;;;;;12.77;6.63;;;4.00;99.90;;;2.38;100.00;102601.56;6208471;23;20020;-81
2022/01/12 03:44:20;;;;;;;11.23;6.55;;;4.00;99.90;;;2.36;100.00;102598.97;6209154;23;20024;-80
2022/01/12 03:46:51;;;;;;;11.10;6.30;;;4.00;99.90;;;2.44;100.00;102598.59;6210960;23;20074;-80
2022/01/12 03:49:21;;;;;;;13.45;6.95;;;4.00;99.90;;;2.45;100.00;102603.00;6208996;23;20348;-80
2022/01/12 03:51:49;;;;;;;13.80;6.72;;;4.00;99.90;;;2.47;100.00;102601.97;6208348;23;20028;-81
2022/01/12 03:54:17;;;;;;;13.85;6.35;;;4.10;99.90;;;2.43;100.00;102600.38;6208951;23;20024;-80
2022/01/12 03:56:47;;;;;;;13.13;7.25;;;4.10;99.90;;;2.47;100.00;102593.91;6210939;23;20024;-80
2022/01/12 03:59:14;;;;;;;10.68;6.38;;;4.10;99.90;;;2.49;100.00;102594.69;6209275;23;20359;-80
2022/01/12 04:01:42;;;;;;;15.68;6.43;;;4.10;99.90;;;2.51;100.00;102589.22;6210117;23;20506;-80
2022/01/12 04:04:17;;;;;;;13.10;6.72;;;4.10;99.90;;;2.51;100.00;102584.75;6209040;23;20351;-80
2022/01/12 04:09:29;;;;;;;14.20;6.78;;;4.10;99.90;;;2.55;100.00;102577.38;6209263;23;20055;-80
2022/01/12 04:11:58;;;;;;;13.05;6.32;;;4.20;99.90;;;2.56;100.00;102581.81;6207824;23;20503;-80
2022/01/12 04:14:25;;;;;;;14.18;6.90;;;4.10;99.90;;;2.55;100.00;102574.69;6209313;23;20024;-80
2022/01/12 04:16:53;;;;;;;12.50;7.03;;;4.20;99.90;;;2.52;100.00;102577.53;6208998;23;20025;-80
2022/01/12 04:19:20;;;;;;;10.65;5.93;;;4.10;99.90;;;2.52;100.00;102580.22;6209035;23;20021;-81
2022/01/12 04:21:49;;;;;;;13.48;6.70;;;4.20;99.90;;;2.55;100.00;102585.44;6208088;23;20059;-80
2022/01/12 04:24:17;;;;;;;13.35;6.85;;;4.20;99.90;;;2.57;100.00;102598.78;6208302;23;20407;-81
2022/01/12 04:26:45;;;;;;;12.43;6.60;;;4.20;99.90;;;2.56;100.00;102587.19;6208640;23;20024;-80
2022/01/12 04:29:14;;;;;;;12.85;7.18;;;4.20;99.90;;;2.56;100.00;102603.31;6210671;23;20027;-80
2022/01/12 04:31:42;;;;;;;12.70;6.93;;;4.20;99.90;;;2.58;100.00;102603.22;6209659;23;20096;-80
2022/01/12 04:34:09;;;;;;;14.75;6.80;;;4.20;99.90;;;2.54;100.00;102608.75;6208410;23;20025;-80
2022/01/12 04:36:37;;;;;;;14.90;7.05;;;4.20;99.90;;;2.51;100.00;102592.81;6210854;23;20518;-80
2022/01/12 04:39:05;;;;;;;14.00;7.07;;;4.20;99.90;;;2.48;100.00;102586.72;6208603;23;20021;-80
2022/01/12 04:41:33;;;;;;;13.82;6.95;;;4.20;99.90;;;2.50;100.00;102591.06;6209603;23;20090;-80
2022/01/12 04:44:02;;;;;;;14.57;6.93;;;4.20;99.90;;;2.58;100.00;102600.53;6208617;23;20027;-81
2022/01/12 04:46:39;;;;;;;14.52;7.28;;;4.20;99.90;;;2.61;100.00;102598.56;6208759;23;20455;-80
2022/01/12 04:51:52;;;;;;;13.32;7.07;;;4.20;99.90;;;2.55;100.00;102604.25;6209445;23;20025;-80
2022/01/12 04:54:19;;;;;;;13.75;7.05;;;4.20;99.90;;;2.48;100.00;102608.22;6208859;23;20035;-80
2022/01/12 04:56:47;;;;;;;12.85;7.30;;;4.20;99.90;;;2.52;100.00;102607.13;6208634;23;20028;-80
2022/01/12 04:59:14;;;;;;;14.65;7.63;;;4.20;99.90;;;2.52;100.00;102609.78;6210526;23;20020;-81
2022/01/12 05:01:51;;;;;;;15.00;6.80;;;4.20;99.90;;;2.52;100.00;102607.13;6207666;23;20048;-80
2022/01/12 05:12:42;;;;;;;12.52;7.00;;;4.20;99.90;;;2.52;100.00;102607.97;6207408;23;20107;-80
2022/01/12 05:15:32;;;;;;;14.90;7.38;;;4.30;99.90;;;2.50;100.00;102609.88;6202152;23;20142;-85
2022/01/12 05:18:01;;;;;;;14.27;7.00;;;4.30;99.90;;;2.45;100.00;102611.06;6208641;23;20486;-89
2022/01/12 05:20:28;;;;;;;13.82;6.97;;;4.40;99.90;;;2.38;100.00;102615.00;6208795;23;20020;-83
2022/01/12 05:22:56;;;;;;;14.88;6.82;;;4.30;99.90;;;2.37;100.00;102607.91;6207039;23;20086;-82
2022/01/12 05:25:24;;;;;;;14.10;7.70;;;4.30;99.90;;;2.46;100.00;102605.63;6208646;23;20028;-82
2022/01/12 05:27:53;;;;;;;12.85;6.88;;;4.30;99.90;;;2.47;100.00;102601.97;6208404;23;20021;-82
2022/01/12 05:30:21;;;;;;;13.73;6.63;;;4.30;99.90;;;2.53;100.00;102603.47;6208117;23;20100;-82
2022/01/12 05:32:48;;;;;;;15.57;7.65;;;4.20;99.90;;;2.56;100.00;102597.06;6207520;23;20032;-82
2022/01/12 05:35:20;;;;;;;13.70;7.25;;;4.20;99.90;;;2.62;100.00;102610.19;6208067;23;20020;-82
2022/01/12 05:37:48;;;;;;;14.35;7.25;;;4.30;99.90;;;2.58;100.00;102606.78;6208217;23;20020;-82
2022/01/12 05:40:17;;;;;;;14.98;7.80;;;4.20;99.90;;;2.61;100.00;102612.00;6208026;23;20028;-82
2022/01/12 05:42:45;;;;;;;14.73;8.50;;;4.20;99.90;;;2.62;100.00;102613.72;6207267;23;20348;-82
2022/01/12 05:45:15;;;;;;;15.85;7.43;;;4.20;99.90;;;2.61;100.00;102619.19;6208532;23;20035;-82
2022/01/12 05:50:34;;;;;;;15.52;8.25;;;4.20;99.90;;;2.61;100.00;102628.13;6208010;23;20028;-83
2022/01/12 05:53:10;;;;;;;16.23;7.88;;;4.20;99.90;;;2.67;100.00;102625.13;6206970;23;20025;-83
2022/01/12 05:55:41;;;;;;;13.07;7.28;;;4.30;99.90;;;2.68;100.00;102615.22;6208106;23;20086;-83
2022/01/12 05:58:08;;;;;;;12.32;7.28;;;4.20;99.90;;;2.72;100.00;102616.78;6209923;23;20781;-83
2022/01/12 06:00:47;;;;;;;;;;;;;;;;;;;;;
2022/01/12 06:03:15;;;;;;;11.65;6.88;;;4.20;99.90;;;2.64;100.00;102609.13;6191175;22;20025;-88
2022/01/12 06:05:44;;;;;;;14.60;7.63;;;4.30;99.90;;;2.55;100.00;102612.31;6180111;23;20017;-88
2022/01/12 06:08:11;;;;;;;14.05;8.02;;;4.30;99.90;;;2.60;100.00;102604.00;6151929;23;20028;-88
2022/01/12 06:10:38;;;;;;;16.33;8.00;;;4.30;99.90;;;2.62;100.00;102608.34;6179643;23;20048;-88
2022/01/12 06:13:06;;;;;;;14.60;7.45;;;4.30;99.90;;;2.54;100.00;102599.84;6152055;23;20063;-88
2022/01/12 06:15:33;;;;;;;13.00;7.30;;;4.30;99.90;;;2.62;100.00;102613.72;6153018;23;20075;-87
2022/01/12 06:18:01;;;;;;;13.82;7.47;;;4.30;99.90;;;2.64;100.00;102611.81;6153243;23;20068;-88
2022/01/12 06:20:31;;;;;;;13.85;7.78;;;4.30;99.90;;;2.67;100.00;102621.56;6154326;23;20464;-88
2022/01/12 06:23:20;;;;;;;12.77;7.88;;;4.30;99.90;;;2.70;100.00;102626.75;6178208;23;20032;-84
2022/01/12 06:25:54;;;;;;;15.27;8.10;;;4.30;99.90;;;2.67;100.00;102633.19;6152271;23;20076;-84
2022/01/12 06:28:35;;;;;;;15.10;8.05;;;4.30;99.90;;;2.68;100.00;102631.34;6178781;23;20014;-83
2022/01/12 06:31:16;;;;;;;13.45;7.90;;;4.30;99.90;;;2.68;100.00;102634.91;6177590;23;20045;-83
2022/01/12 06:33:45;;;;;;;;;;;4.40;99.90;;;2.70;100.00;102638.41;6153743;23;20029;-82
2022/01/12 06:36:15;;;;;;;14.45;7.78;;;4.30;99.90;;;2.70;100.00;102633.03;6153128;23;19916;-82
2022/01/12 06:38:45;;;;;;;12.83;7.37;;;4.30;99.90;;;2.72;100.00;102635.63;6153092;23;20017;-82
2022/01/12 06:41:15;;;;;;;15.45;8.23;;;4.30;99.90;;;2.72;100.00;102639.19;6152139;23;20024;-81
2022/01/12 06:43:42;;;;;;;14.00;8.23;;;4.30;99.90;;;2.70;100.00;102638.41;6152929;23;20049;-81
2022/01/12 06:46:11;;;;;;;13.73;8.05;;;4.30;99.90;;;2.69;100.00;102641.16;6153054;23;20021;-81
2022/01/12 06:48:39;;;;;;;14.00;8.50;;;4.40;99.90;;;2.71;100.00;102644.66;6152727;23;20549;-81
2022/01/12 06:51:06;;;;;;;15.75;8.15;;;4.30;99.90;;;2.72;100.00;102649.06;6154067;23;20025;-81
2022/01/12 06:53:34;;;;;;;14.90;8.65;;;4.30;99.90;;;2.71;100.00;102644.66;6154989;23;20029;-81
2022/01/12 06:56:05;;;;;;;16.17;8.45;;;4.40;99.90;;;2.73;100.00;102651.66;6154966;23;20025;-81
2022/01/12 06:58:36;;;;;;;16.15;9.13;;;4.40;99.90;;;2.79;100.00;102657.69;6154591;23;20021;-82
2022/01/12 07:01:04;;;;;;;15.60;8.57;;;4.40;99.90;;;2.81;100.00;102655.78;6154165;23;20024;-81
2022/01/12 07:03:34;;;;;;;18.70;8.98;;;4.40;99.90;;;2.85;100.00;102657.34;6154836;23;20025;-81
2022/01/12 07:06:03;;;;;;;14.82;8.38;;;4.40;99.90;;;2.84;100.00;102661.00;6154809;23;20032;-81
2022/01/12 07:08:32;;;;;;;14.88;8.23;;;4.40;99.90;;;2.81;100.00;102661.16;6155388;23;20020;-81
2022/01/12 07:11:00;;;;;;;15.05;8.57;;;4.40;99.90;;;2.79;100.00;102663.91;6154043;23;20036;-81
2022/01/12 07:13:29;;;;;;;16.67;9.05;;;4.40;99.90;;;2.77;100.00;102681.97;6154543;23;20033;-81
2022/01/12 07:15:59;;;;;;;13.63;8.73;;;4.40;99.90;;;2.79;100.00;102679.19;6154821;23;20025;-81
2022/01/12 07:18:28;;;;;;;17.17;9.07;;;4.40;99.90;;;2.74;100.00;102682.09;6154963;23;20363;-82
2022/01/12 07:20:56;;;;;;;17.60;9.45;;;4.40;99.90;;;2.76;100.00;102690.09;6154582;23;20411;-81
2022/01/12 07:23:23;;;;;;;16.90;8.77;;;4.40;99.90;;;2.81;100.00;102696.97;6180578;23;20084;-82
2022/01/12 07:25:51;;;;;;;17.42;9.25;;;4.40;99.90;;;2.82;100.00;102704.09;6181094;23;20076;-84
2022/01/12 07:28:18;;;;;;;15.38;8.38;;;4.40;99.90;;;2.85;100.00;102711.13;6180955;23;20088;-81
2022/01/12 07:30:47;;;;;;;16.48;8.75;;;4.40;99.90;;;2.81;100.00;102714.94;6181204;23;20452;-81
2022/01/12 07:33:15;;;;;;;14.13;7.95;;;4.40;99.90;;;2.83;100.00;102727.34;6179688;23;20519;-81
2022/01/12 07:35:43;;;;;;;13.98;8.60;;;4.40;99.90;;;2.83;100.00;102730.03;6181321;23;20044;-81
2022/01/12 07:38:11;;;;;;;18.52;9.27;;;4.40;99.90;;;2.86;100.00;102734.41;6180671;23;20420;-85
2022/01/12 07:40:38;;;;;;;16.23;8.75;;;4.40;99.90;;;2.85;100.00;102740.72;6181276;23;20017;-84
2022/01/12 07:43:07;;;;;;;19.27;9.05;;;4.40;99.90;;;2.80;100.00;102734.69;6180092;23;20619;-87
2022/01/12 07:45:35;;;;;;;15.10;8.27;;;4.60;99.90;;;2.82;100.00;102743.56;6181051;23;20078;-85
2022/01/12 07:48:05;;;;;;;18.40;8.73;;;4.40;99.90;;;2.83;100.00;102737.25;6154545;23;20048;-85
2022/01/12 07:50:32;;;;;;;15.10;8.55;;;4.40;99.90;;;2.85;100.00;102748.78;6181467;23;20040;-85
2022/01/12 07:53:00;;;;;;;17.95;9.23;;;4.40;99.90;;;2.88;100.00;102759.41;6180003;23;20021;-84
2022/01/12 07:55:27;;;;;;;18.02;9.32;;;4.50;99.90;;;2.88;100.00;102759.41;6181248;23;20088;-85
2022/01/12 07:57:55;;;;;;;18.08;9.20;;;4.50;99.90;;;2.86;100.00;102762.16;6178755;23;20044;-85
2022/01/12 08:00:22;;;;;;;17.77;9.32;;;4.50;99.90;;;2.85;100.00;102764.91;6179266;23;20025;-85
2022/01/12 08:02:50;;;;;;;18.80;9.57;;;4.50;99.90;;;2.89;100.00;102769.19;6178836;23;20021;-84
2022/01/12 08:05:20;;;;;;;22.55;9.55;;;4.50;99.90;;;2.90;100.00;102776.31;6177830;23;20056;-83
2022/01/12 08:07:48;;;;;;;16.88;9.98;;;4.50;99.90;;;2.90;100.00;102773.63;6153535;23;20419;-83
2022/01/12 08:10:17;;;;;;;18.05;10.07;;;4.50;99.90;;;2.88;100.00;102765.63;6179678;23;20116;-83
2022/01/12 08:12:45;;;;;;;19.63;9.80;;;4.50;99.90;;;2.78;100.00;102759.00;6176541;23;20021;-83
2022/01/12 08:15:13;;;;;;;23.17;11.35;;;4.50;99.90;;;2.78;100.00;102752.72;6179738;23;20017;-83
2022/01/12 08:17:40;;;;;;;23.13;10.57;;;4.50;99.90;;;2.76;100.00;102757.31;6179509;23;20845;-83
2022/01/12 08:20:12;;;;;;;22.95;11.27;;;4.50;99.90;;;2.81;100.00;102757.97;6180084;23;20021;-83
2022/01/12 08:22:41;;;;;;;22.98;12.55;;;4.50;99.90;;;2.84;100.00;102774.81;6151965;23;20029;-83
2022/01/12 08:25:10;;;;;;;26.92;13.32;;;4.60;99.90;;;2.86;100.00;102772.06;6180680;23;20075;-83
2022/01/12 08:27:37;;;;;;;28.67;13.43;;;4.50;99.90;;;2.88;100.00;102770.16;6154170;23;20463;-83
2022/01/12 08:30:14;;;;;;;31.23;15.40;;;4.60;99.90;;;2.81;100.00;102776.78;6180134;23;20109;-83
2022/01/12 08:32:42;;;;;;;33.15;14.55;;;4.60;99.90;;;2.72;100.00;102778.09;6179645;23;20092;-83
2022/01/12 08:35:09;;;;;;;29.60;14.20;;;4.60;99.90;;;2.71;100.00;102773.69;6180813;23;20087;-82
2022/01/12 08:37:37;;;;;;;28.20;13.68;;;4.60;99.90;;;2.70;100.00;102771.94;6180810;23;20044;-83
2022/01/12 08:40:07;;;;;;;28.27;14.02;;;4.60;99.90;;;2.78;100.00;102779.63;6180359;23;20013;-83
2022/01/12 08:42:35;;;;;;;27.33;13.95;;;4.60;99.90;;;2.85;100.00;102786.44;6179816;23;20508;-83
2022/01/12 08:45:05;;;;;;;28.48;13.80;;;4.60;99.90;;;2.89;100.00;102777.25;6180820;23;20455;-83
2022/01/12 08:47:32;;;;;;;27.85;12.77;;;4.60;99.90;;;2.90;100.00;102779.00;6180631;23;20024;-83
2022/01/12 08:50:00;;;;;;;31.35;13.63;;;4.60;99.90;;;2.89;100.00;102783.53;6180557;23;20020;-83
2022/01/12 08:52:29;;;;;;;29.35;13.85;;;4.60;99.90;;;2.90;100.00;102795.16;6152985;23;20108;-83
2022/01/12 08:54:56;;;;;;;34.25;15.57;;;4.60;99.90;;;2.95;100.00;102801.13;6180541;23;20021;-83
2022/01/12 08:57:25;;;;;;;35.08;14.52;;;4.70;99.90;;;2.97;100.00;102801.97;6180446;23;20325;-83
2022/01/12 08:59:52;;;;;;;32.60;14.50;;;4.70;99.90;;;2.90;100.00;102816.66;6153998;23;20428;-83
2022/01/12 09:02:19;;;;;;;29.63;14.65;;;4.70;99.90;;;2.99;100.00;102826.06;6179481;23;20044;-82
2022/01/12 09:04:47;;;;;;;36.20;15.40;;;4.70;99.90;;;3.04;100.00;102822.19;6180653;23;20025;-82
2022/01/12 09:07:14;;;;;;;29.05;14.65;;;4.70;99.90;;;3.09;100.00;102828.22;6180727;23;20333;-82
2022/01/12 09:09:41;;;;;;;27.42;13.35;;;4.70;99.90;;;3.10;100.00;102831.75;6180241;23;20052;-82
2022/01/12 09:12:10;;;;;;;29.83;13.75;;;4.80;99.90;;;3.11;100.00;102834.38;6179509;23;20018;-82
2022/01/12 09:14:39;;;;;;;30.58;15.15;;;4.80;99.90;;;2.99;100.00;102843.09;6180052;23;20068;-82
2022/01/12 09:17:16;;;;;;;39.03;16.95;;;4.80;99.90;;;2.94;100.00;102839.75;6180324;23;20048;-82
2022/01/12 09:19:43;;;;;;;37.25;16.77;;;4.80;99.90;;;3.00;100.00;102844.81;6179875;23;20456;-82
2022/01/12 09:22:11;;;;;;;38.03;16.23;;;4.80;99.90;;;3.01;100.00;102851.06;6178980;23;20483;-82
2022/01/12 09:24:38;;;;;;;36.55;15.93;;;4.70;99.90;;;2.97;100.00;102841.41;6179769;23;20448;-82
2022/01/12 09:27:06;;;;;;;37.67;15.82;;;4.80;99.90;;;3.02;100.00;102845.59;6180134;23;20371;-82
2022/01/12 09:29:33;;;;;;;41.63;17.13;;;4.80;99.90;;;3.06;100.00;102841.81;6179884;23;20020;-82
2022/01/12 09:32:02;;;;;;;46.00;17.13;;;4.80;99.90;;;2.89;100.00;102857.94;6178934;23;20036;-82
2022/01/12 09:34:29;;;;;;;46.67;19.88;;;4.80;99.90;;;2.88;100.00;102856.22;6180098;23;20072;-82
2022/01/12 09:36:57;;;;;;;48.88;19.67;;;4.80;99.90;;;2.96;100.00;102856.69;6180037;23;20049;-82
2022/01/12 09:39:24;;;;;;;47.75;18.98;;;4.80;99.90;;;2.90;100.00;102860.56;6179947;23;20017;-82
2022/01/12 09:41:51;;;;;;;46.75;19.42;;;4.80;99.90;;;2.93;100.00;102852.34;6178626;23;20083;-82
2022/01/12 09:44:19;;;;;;;45.80;19.13;;;4.80;99.90;;;2.95;100.00;102838.78;6180267;23;20113;-82
2022/01/12 09:46:47;;;;;;;45.80;19.33;;;4.80;99.90;;;2.96;100.00;102851.31;6180148;23;20079;-82
2022/01/12 09:49:16;;;;;;;47.60;18.48;;;4.90;99.90;;;2.99;100.00;102853.84;6179661;23;20048;-82
2022/01/12 09:51:43;;;;;;;43.15;18.42;;;4.90;99.90;;;2.99;100.00;102852.97;6178823;23;20040;-82
2022/01/12 09:54:12;;;;;;;44.33;18.85;;;4.90;99.90;;;3.05;100.00;102848.16;6179899;23;20060;-82
2022/01/12 09:56:39;;;;;;;45.75;17.73;;;4.90;99.90;;;3.13;100.00;102848.63;6179861;23;20075;-82
2022/01/12 09:59:10;;;;;;;44.15;16.85;;;4.90;99.90;;;3.17;100.00;102845.78;6153306;23;20021;-82
2022/01/12 10:01:43;;;;;;;37.25;16.92;;;4.90;99.90;;;3.18;100.00;102853.78;6178477;23;20478;-82
2022/01/12 10:04:15;;;;;;;44.88;17.42;;;5.00;99.90;;;3.14;100.00;102846.78;6179406;23;20046;-82
2022/01/12 10:06:47;;;;;;;43.15;17.65;;;5.00;99.90;;;3.07;100.00;102845.41;6153427;23;20071;-82
2022/01/12 10:09:16;;;;;;;45.30;17.63;;;5.00;99.90;;;3.16;100.00;102844.94;6179848;23;20013;-82
2022/01/12 10:11:51;;;;;;;41.38;17.85;;;5.00;99.90;;;3.22;100.00;102843.72;6178710;23;20028;-82
2022/01/12 10:14:21;;;;;;;47.72;19.42;;;5.00;99.90;;;3.26;100.00;102845.31;6153403;23;20017;-82
2022/01/12 10:16:55;;;;;;;43.10;17.92;;;5.00;99.90;;;3.27;100.00;102845.22;6153242;23;20021;-82
2022/01/12 10:19:28;;;;;;;40.85;17.27;;;5.00;99.90;;;3.26;100.00;102842.63;6179875;23;20530;-82
2022/01/12 10:22:00;;;;;;;48.65;19.35;;;5.10;99.90;;;3.28;100.00;102838.03;6178335;23;20024;-81
2022/01/12 10:24:29;;;;;;;48.50;18.90;;;5.10;99.90;;;3.31;100.00;102854.00;6179638;23;20463;-81
2022/01/12 10:26:58;;;;;;;53.80;20.17;;;5.20;99.90;;;3.40;100.00;102852.66;6152904;23;20099;-82
2022/01/12 10:29:28;;;;;;;48.53;19.15;;;5.20;99.90;;;3.39;100.00;102859.88;6153270;23;20021;-82
2022/01/12 10:31:59;;;;;;;45.45;19.65;;;5.20;99.90;;;3.44;100.00;102854.25;6178471;23;20055;-82
2022/01/12 10:34:29;;;;;;;44.13;19.10;;;5.20;99.90;;;3.40;100.00;102856.22;6153340;23;20025;-82
2022/01/12 10:36:59;;;;;;;49.55;19.63;;;5.20;99.90;;;3.37;100.00;102856.41;6179591;23;20024;-82
2022/01/12 10:39:29;;;;;;;49.15;18.38;;;5.20;99.90;;;3.45;100.00;102866.75;6179346;23;20017;-82
2022/01/12 10:42:01;;;;;;;45.30;19.60;;;5.20;99.90;;;3.51;100.00;102866.44;6178393;23;20068;-82
2022/01/12 10:44:32;;;;;;;49.03;19.77;;;5.20;99.90;;;3.60;100.00;102865.06;6153050;23;20029;-82
2022/01/12 10:47:12;;;;;;;45.72;18.77;;;5.20;99.90;;;3.62;100.00;102863.19;6152919;23;20043;-82
2022/01/12 10:49:43;;;;;;;54.88;21.42;;;5.20;99.90;;;3.58;100.00;102872.34;6153103;23;20506;-82
2022/01/12 10:52:14;;;;;;;44.90;19.52;;;5.20;99.90;;;3.46;100.00;102873.88;6178748;23;20021;-82
2022/01/12 10:54:50;;;;;;;49.03;20.33;;;5.20;99.90;;;3.50;100.00;102864.69;6179189;23;20021;-82
2022/01/12 10:57:22;;;;;;;53.30;20.52;;;5.20;99.90;;;3.47;100.00;102871.09;6179682;23;20527;-83
2022/01/12 11:00:10;;;;;;;50.50;19.80;;;5.20;99.90;;;3.49;100.00;102885.34;6179337;23;20044;-82
2022/01/12 11:02:40;;;;;;;65.88;22.73;;;5.30;99.90;;;3.55;100.00;102872.53;6178211;23;20032;-81
2022/01/12 11:05:09;;;;;;;65.30;24.88;;;5.30;99.90;;;3.49;100.00;102874.59;6179519;23;20067;-82
2022/01/12 11:07:38;;;;;;;70.45;25.08;;;5.30;99.90;;;3.46;100.00;102872.03;6179409;23;20071;-82
2022/01/12 11:13:48;;;;;;;66.38;24.75;;;5.30;99.90;;;3.46;100.00;102880.13;6178198;23;20028;-82
2022/01/12 11:16:16;;;;;;;69.88;24.30;;;5.30;99.90;;;3.50;100.00;102870.97;6177300;23;20020;-81
2022/01/12 11:18:44;;;;;;;64.97;23.98;;;5.30;99.90;;;3.46;100.00;102866.66;6179248;23;20052;-81
2022/01/12 11:21:32;;;;;;;71.88;24.63;;;5.30;99.90;;;3.47;100.00;102876.50;6178141;23;20100;-82
2022/01/12 11:24:02;;;;;;;67.88;24.88;;;5.30;99.90;;;3.50;100.00;102870.97;6179355;23;20025;-82
2022/01/12 11:26:31;;;;;;;80.00;26.25;;;5.30;99.90;;;3.56;100.00;102876.94;6177692;23;20059;-82
2022/01/12 11:29:00;;;;;;;76.22;26.10;;;5.30;99.90;;;3.63;100.00;102870.28;6151149;23;20490;-81
2022/01/12 11:31:29;;;;;;;80.60;27.48;;;5.30;99.90;;;3.56;100.00;102879.63;6177765;23;20044;-82
2022/01/12 11:33:56;;;;;;;84.63;28.05;;;5.30;99.90;;;3.62;100.00;102873.97;6177687;23;20444;-82
2022/01/12 11:36:27;;;;;;;75.32;27.65;;;5.30;99.90;;;3.65;100.00;102880.03;6179285;23;20132;-82
2022/01/12 11:39:06;;;;;;;77.68;27.10;;;5.40;99.90;;;3.71;100.00;102884.22;6181256;23;20025;-82